الصفحة الرئيسية
METAR-TAF:

METAR-TAF

مطار :

Juigalpa, نيكاراغوا

دائرة عرض: 12-06N, خط طول: 085-22W, ارتفاع: 90 متر

مراقبة الطقس الحالي

تاريخ ووقت الإصدار 15 دقيقة قبل الساعة 18:00UTC
رياح هادئة
درجة الحرارة 34°درجة مئوية
الرطوبة 47%
ضغط 1012 hPa
الرؤية 10 كم أو أكثر
غيوم متفرقة على ارتفاع 2000 قدم

METAR: MNJU 041800Z 00000KT 9999 SCT020 34/21 Q1012

زمن: 12:15 (18:15 UTC)


TAF: مفقودة

أرصاد الطقس والتوقعات من أكثر من 4000 مطار (تقارير الطقس للمطار METAR والتنبؤ بالطقس بالمطارTAF).

المحطات المتاحة هي النقط الصفراء والحمراء على الخريطة.

حرك المؤشر فوق النقطة لمعرفة اسم المحطة.

ثم انقر لمعرفة أرصاد وتوقعات الطقس.

لتغيير الخارطة: اضغط على الأزرار الخضراء مع رمز الصليب الأسود للتكبير. على الزر الأخضر مع شرطة للتصغير، أو على الأسهم الخضراء للخرائط المجاورة.


METAR-TAF: